sensor_id;sensor_type;location;lat;lon;timestamp;P1;durP1;ratioP1;P2;durP2;ratioP2
4391;SDS011;2210;51.938;8.488;2023-01-24T00:03:43;5.57;;;4.68;;
4391;SDS011;2210;51.938;8.488;2023-01-24T00:07:47;6.43;;;5.43;;
4391;SDS011;2210;51.938;8.488;2023-01-24T00:11:53;5.87;;;5.07;;
4391;SDS011;2210;51.938;8.488;2023-01-24T00:16:03;7.63;;;5.87;;
4391;SDS011;2210;51.938;8.488;2023-01-24T00:20:11;7.43;;;5.67;;
4391;SDS011;2210;51.938;8.488;2023-01-24T00:24:11;6.47;;;5.30;;
4391;SDS011;2210;51.938;8.488;2023-01-24T00:28:15;7.03;;;5.20;;
4391;SDS011;2210;51.938;8.488;2023-01-24T00:32:15;5.90;;;5.00;;
4391;SDS011;2210;51.938;8.488;2023-01-24T00:36:18;5.55;;;4.43;;
4391;SDS011;2210;51.938;8.488;2023-01-24T00:40:18;6.03;;;5.20;;
4391;SDS011;2210;51.938;8.488;2023-01-24T00:44:19;5.82;;;4.80;;
4391;SDS011;2210;51.938;8.488;2023-01-24T00:48:19;6.07;;;5.30;;
4391;SDS011;2210;51.938;8.488;2023-01-24T00:52:22;8.10;;;5.80;;
4391;SDS011;2210;51.938;8.488;2023-01-24T00:56:28;6.00;;;5.30;;
4391;SDS011;2210;51.938;8.488;2023-01-24T01:00:29;7.73;;;5.73;;
4391;SDS011;2210;51.938;8.488;2023-01-24T01:04:29;7.37;;;5.27;;
4391;SDS011;2210;51.938;8.488;2023-01-24T01:08:29;5.95;;;5.35;;
4391;SDS011;2210;51.938;8.488;2023-01-24T01:12:33;6.60;;;5.57;;
4391;SDS011;2210;51.938;8.488;2023-01-24T01:16:33;6.57;;;5.70;;
4391;SDS011;2210;51.938;8.488;2023-01-24T01:20:37;6.93;;;6.23;;
4391;SDS011;2210;51.938;8.488;2023-01-24T01:24:37;6.53;;;5.10;;
4391;SDS011;2210;51.938;8.488;2023-01-24T01:28:38;7.70;;;5.95;;
4391;SDS011;2210;51.938;8.488;2023-01-24T01:41:38;5.77;;;5.17;;
4391;SDS011;2210;51.938;8.488;2023-01-24T01:45:42;5.22;;;4.72;;
4391;SDS011;2210;51.938;8.488;2023-01-24T01:50:02;5.60;;;5.00;;
4391;SDS011;2210;51.938;8.488;2023-01-24T01:54:09;5.10;;;4.03;;
4391;SDS011;2210;51.938;8.488;2023-01-24T01:58:22;5.53;;;4.87;;
4391;SDS011;2210;51.938;8.488;2023-01-24T02:02:23;4.50;;;4.00;;
4391;SDS011;2210;51.938;8.488;2023-01-24T02:06:32;5.27;;;4.77;;
4391;SDS011;2210;51.938;8.488;2023-01-24T02:10:34;4.23;;;3.83;;
4391;SDS011;2210;51.938;8.488;2023-01-24T02:14:54;5.17;;;4.07;;
4391;SDS011;2210;51.938;8.488;2023-01-24T02:19:24;5.50;;;4.80;;
4391;SDS011;2210;51.938;8.488;2023-01-24T02:28:04;4.60;;;4.10;;
4391;SDS011;2210;51.938;8.488;2023-01-24T02:32:18;4.93;;;4.10;;
4391;SDS011;2210;51.938;8.488;2023-01-24T02:40:34;5.50;;;5.00;;
4391;SDS011;2210;51.938;8.488;2023-01-24T02:49:15;5.50;;;4.63;;
4391;SDS011;2210;51.938;8.488;2023-01-24T02:53:19;6.10;;;4.87;;
4391;SDS011;2210;51.938;8.488;2023-01-24T02:57:43;4.20;;;3.70;;
4391;SDS011;2210;51.938;8.488;2023-01-24T03:02:02;6.57;;;5.10;;
4391;SDS011;2210;51.938;8.488;2023-01-24T03:06:03;6.07;;;4.97;;
4391;SDS011;2210;51.938;8.488;2023-01-24T03:10:22;6.00;;;4.70;;
4391;SDS011;2210;51.938;8.488;2023-01-24T03:14:25;6.50;;;4.60;;
4391;SDS011;2210;51.938;8.488;2023-01-24T03:18:44;5.37;;;4.50;;
4391;SDS011;2210;51.938;8.488;2023-01-24T03:23:09;6.40;;;5.70;;
4391;SDS011;2210;51.938;8.488;2023-01-24T03:27:37;6.37;;;4.90;;
4391;SDS011;2210;51.938;8.488;2023-01-24T03:36:48;4.87;;;4.47;;
4391;SDS011;2210;51.938;8.488;2023-01-24T03:40:51;5.40;;;4.70;;
4391;SDS011;2210;51.938;8.488;2023-01-24T03:44:52;4.37;;;3.97;;
4391;SDS011;2210;51.938;8.488;2023-01-24T03:48:53;5.20;;;3.90;;
4391;SDS011;2210;51.938;8.488;2023-01-24T03:52:59;5.87;;;3.90;;
4391;SDS011;2210;51.938;8.488;2023-01-24T03:57:02;4.97;;;4.50;;
4391;SDS011;2210;51.938;8.488;2023-01-24T04:01:03;5.00;;;4.50;;
4391;SDS011;2210;51.938;8.488;2023-01-24T04:05:03;5.10;;;4.60;;
4391;SDS011;2210;51.938;8.488;2023-01-24T04:09:17;5.10;;;4.60;;
4391;SDS011;2210;51.938;8.488;2023-01-24T04:13:20;3.93;;;3.53;;
4391;SDS011;2210;51.938;8.488;2023-01-24T04:17:23;4.33;;;3.93;;
4391;SDS011;2210;51.938;8.488;2023-01-24T04:21:23;4.70;;;4.30;;
4391;SDS011;2210;51.938;8.488;2023-01-24T04:25:23;4.32;;;3.92;;
4391;SDS011;2210;51.938;8.488;2023-01-24T04:29:24;4.95;;;4.55;;
4391;SDS011;2210;51.938;8.488;2023-01-24T04:33:33;5.00;;;4.50;;
4391;SDS011;2210;51.938;8.488;2023-01-24T04:37:34;5.10;;;4.60;;
4391;SDS011;2210;51.938;8.488;2023-01-24T04:41:34;4.10;;;3.70;;
4391;SDS011;2210;51.938;8.488;2023-01-24T04:45:34;4.40;;;3.97;;
4391;SDS011;2210;51.938;8.488;2023-01-24T04:49:34;4.50;;;3.87;;
4391;SDS011;2210;51.938;8.488;2023-01-24T04:53:38;5.53;;;3.63;;
4391;SDS011;2210;51.938;8.488;2023-01-24T04:57:48;4.40;;;3.90;;
4391;SDS011;2210;51.938;8.488;2023-01-24T05:01:48;4.27;;;3.87;;
4391;SDS011;2210;51.938;8.488;2023-01-24T05:05:49;4.43;;;3.97;;
4391;SDS011;2210;51.938;8.488;2023-01-24T05:09:53;6.07;;;5.07;;
4391;SDS011;2210;51.938;8.488;2023-01-24T05:13:54;6.43;;;4.90;;
4391;SDS011;2210;51.938;8.488;2023-01-24T05:18:06;6.17;;;5.03;;
4391;SDS011;2210;51.938;8.488;2023-01-24T05:22:09;5.20;;;4.70;;
4391;SDS011;2210;51.938;8.488;2023-01-24T05:26:13;5.07;;;4.57;;
4391;SDS011;2210;51.938;8.488;2023-01-24T05:30:13;4.43;;;4.00;;
4391;SDS011;2210;51.938;8.488;2023-01-24T05:34:13;4.23;;;3.83;;
4391;SDS011;2210;51.938;8.488;2023-01-24T05:38:14;7.63;;;5.27;;
4391;SDS011;2210;51.938;8.488;2023-01-24T05:42:20;6.65;;;4.38;;
4391;SDS011;2210;51.938;8.488;2023-01-24T05:46:23;6.03;;;5.07;;
4391;SDS011;2210;51.938;8.488;2023-01-24T05:50:23;5.13;;;4.40;;
4391;SDS011;2210;51.938;8.488;2023-01-24T05:54:29;4.88;;;4.28;;
4391;SDS011;2210;51.938;8.488;2023-01-24T05:58:34;4.93;;;4.43;;
4391;SDS011;2210;51.938;8.488;2023-01-24T06:02:39;4.00;;;3.60;;
4391;SDS011;2210;51.938;8.488;2023-01-24T06:06:39;4.27;;;3.87;;
4391;SDS011;2210;51.938;8.488;2023-01-24T06:10:46;4.90;;;4.03;;
4391;SDS011;2210;51.938;8.488;2023-01-24T06:14:46;4.27;;;3.90;;
4391;SDS011;2210;51.938;8.488;2023-01-24T06:18:50;5.63;;;4.20;;
4391;SDS011;2210;51.938;8.488;2023-01-24T06:22:52;5.37;;;4.87;;
4391;SDS011;2210;51.938;8.488;2023-01-24T06:27:13;5.20;;;4.67;;
4391;SDS011;2210;51.938;8.488;2023-01-24T06:40:17;6.90;;;4.87;;
4391;SDS011;2210;51.938;8.488;2023-01-24T06:44:19;5.37;;;4.20;;
4391;SDS011;2210;51.938;8.488;2023-01-24T06:48:20;5.23;;;4.30;;
4391;SDS011;2210;51.938;8.488;2023-01-24T06:52:27;4.37;;;3.97;;
4391;SDS011;2210;51.938;8.488;2023-01-24T06:56:33;5.20;;;4.47;;
4391;SDS011;2210;51.938;8.488;2023-01-24T07:00:39;5.73;;;4.87;;
4391;SDS011;2210;51.938;8.488;2023-01-24T07:04:43;5.20;;;4.37;;
4391;SDS011;2210;51.938;8.488;2023-01-24T07:08:43;4.60;;;4.20;;
4391;SDS011;2210;51.938;8.488;2023-01-24T07:12:53;4.67;;;4.00;;
4391;SDS011;2210;51.938;8.488;2023-01-24T07:16:53;5.00;;;4.50;;
4391;SDS011;2210;51.938;8.488;2023-01-24T07:20:58;4.50;;;3.97;;
4391;SDS011;2210;51.938;8.488;2023-01-24T07:24:58;4.87;;;4.37;;
4391;SDS011;2210;51.938;8.488;2023-01-24T07:28:59;5.10;;;4.60;;
4391;SDS011;2210;51.938;8.488;2023-01-24T07:33:00;5.15;;;4.65;;
4391;SDS011;2210;51.938;8.488;2023-01-24T07:37:12;5.40;;;4.90;;
4391;SDS011;2210;51.938;8.488;2023-01-24T07:41:15;3.73;;;3.43;;
4391;SDS011;2210;51.938;8.488;2023-01-24T07:45:28;4.53;;;4.13;;
4391;SDS011;2210;51.938;8.488;2023-01-24T07:49:28;5.93;;;4.77;;
4391;SDS011;2210;51.938;8.488;2023-01-24T07:53:32;5.63;;;4.75;;
4391;SDS011;2210;51.938;8.488;2023-01-24T07:57:32;5.83;;;4.90;;
4391;SDS011;2210;51.938;8.488;2023-01-24T08:01:36;5.15;;;4.65;;
4391;SDS011;2210;51.938;8.488;2023-01-24T08:05:37;4.63;;;4.03;;
4391;SDS011;2210;51.938;8.488;2023-01-24T08:09:47;5.70;;;3.40;;
4391;SDS011;2210;51.938;8.488;2023-01-24T08:13:48;4.87;;;4.40;;
4391;SDS011;2210;51.938;8.488;2023-01-24T08:18:01;4.40;;;4.00;;
4391;SDS011;2210;51.938;8.488;2023-01-24T08:22:02;5.20;;;4.17;;
4391;SDS011;2210;51.938;8.488;2023-01-24T08:26:03;4.10;;;3.70;;
4391;SDS011;2210;51.938;8.488;2023-01-24T08:30:05;4.83;;;3.90;;
4391;SDS011;2210;51.938;8.488;2023-01-24T08:34:08;5.50;;;4.63;;
4391;SDS011;2210;51.938;8.488;2023-01-24T08:38:09;4.23;;;3.83;;
4391;SDS011;2210;51.938;8.488;2023-01-24T08:42:09;5.70;;;4.55;;
4391;SDS011;2210;51.938;8.488;2023-01-24T08:46:13;4.23;;;3.83;;
4391;SDS011;2210;51.938;8.488;2023-01-24T08:50:16;3.60;;;3.30;;
4391;SDS011;2210;51.938;8.488;2023-01-24T08:54:19;4.33;;;3.93;;
4391;SDS011;2210;51.938;8.488;2023-01-24T08:58:19;3.70;;;3.35;;
4391;SDS011;2210;51.938;8.488;2023-01-24T09:02:20;4.27;;;3.83;;
4391;SDS011;2210;51.938;8.488;2023-01-24T09:06:24;5.05;;;4.38;;
4391;SDS011;2210;51.938;8.488;2023-01-24T09:10:24;3.63;;;3.33;;
4391;SDS011;2210;51.938;8.488;2023-01-24T09:14:25;4.63;;;4.23;;
4391;SDS011;2210;51.938;8.488;2023-01-24T09:18:25;3.87;;;3.47;;
4391;SDS011;2210;51.938;8.488;2023-01-24T09:22:26;4.40;;;4.00;;
4391;SDS011;2210;51.938;8.488;2023-01-24T09:26:27;4.13;;;3.47;;
4391;SDS011;2210;51.938;8.488;2023-01-24T09:30:27;4.78;;;4.25;;
4391;SDS011;2210;51.938;8.488;2023-01-24T09:34:27;4.40;;;3.93;;
4391;SDS011;2210;51.938;8.488;2023-01-24T09:38:29;4.45;;;3.95;;
4391;SDS011;2210;51.938;8.488;2023-01-24T09:46:45;4.20;;;3.80;;
4391;SDS011;2210;51.938;8.488;2023-01-24T09:50:52;3.77;;;3.47;;
4391;SDS011;2210;51.938;8.488;2023-01-24T09:55:05;4.50;;;4.10;;
4391;SDS011;2210;51.938;8.488;2023-01-24T09:59:57;4.10;;;3.70;;
4391;SDS011;2210;51.938;8.488;2023-01-24T10:03:52;4.33;;;3.93;;
4391;SDS011;2210;51.938;8.488;2023-01-24T10:07:57;3.77;;;3.47;;
4391;SDS011;2210;51.938;8.488;2023-01-24T10:16:48;3.50;;;3.27;;
4391;SDS011;2210;51.938;8.488;2023-01-24T10:21:07;4.07;;;3.30;;
4391;SDS011;2210;51.938;8.488;2023-01-24T10:29:54;4.13;;;3.73;;
4391;SDS011;2210;51.938;8.488;2023-01-24T10:38:42;4.40;;;3.53;;
4391;SDS011;2210;51.938;8.488;2023-01-24T10:42:43;4.30;;;3.90;;
4391;SDS011;2210;51.938;8.488;2023-01-24T10:46:46;3.70;;;3.33;;
4391;SDS011;2210;51.938;8.488;2023-01-24T10:51:11;4.67;;;4.10;;
4391;SDS011;2210;51.938;8.488;2023-01-24T10:55:33;4.77;;;4.30;;
4391;SDS011;2210;51.938;8.488;2023-01-24T10:59:40;4.63;;;4.20;;
4391;SDS011;2210;51.938;8.488;2023-01-24T11:03:40;4.90;;;4.40;;
4391;SDS011;2210;51.938;8.488;2023-01-24T11:12:04;4.00;;;3.63;;
4391;SDS011;2210;51.938;8.488;2023-01-24T11:20:30;5.40;;;3.70;;
4391;SDS011;2210;51.938;8.488;2023-01-24T11:24:33;4.37;;;4.00;;
4391;SDS011;2210;51.938;8.488;2023-01-24T11:28:43;4.13;;;3.73;;
4391;SDS011;2210;51.938;8.488;2023-01-24T11:41:23;4.30;;;3.93;;
4391;SDS011;2210;51.938;8.488;2023-01-24T11:45:43;4.50;;;4.10;;
4391;SDS011;2210;51.938;8.488;2023-01-24T11:54:31;2.73;;;2.53;;
4391;SDS011;2210;51.938;8.488;2023-01-24T12:07:44;3.80;;;3.50;;
4391;SDS011;2210;51.938;8.488;2023-01-24T12:11:53;3.97;;;3.57;;
4391;SDS011;2210;51.938;8.488;2023-01-24T12:20:59;3.53;;;3.23;;
4391;SDS011;2210;51.938;8.488;2023-01-24T12:29:32;2.70;;;2.50;;
4391;SDS011;2210;51.938;8.488;2023-01-24T12:33:54;3.03;;;2.73;;
4391;SDS011;2210;51.938;8.488;2023-01-24T12:42:17;3.10;;;2.90;;
4391;SDS011;2210;51.938;8.488;2023-01-24T12:46:32;3.10;;;2.90;;
4391;SDS011;2210;51.938;8.488;2023-01-24T12:50:40;3.27;;;3.00;;
4391;SDS011;2210;51.938;8.488;2023-01-24T12:54:47;3.90;;;3.53;;
4391;SDS011;2210;51.938;8.488;2023-01-24T12:58:53;3.13;;;2.93;;
4391;SDS011;2210;51.938;8.488;2023-01-24T13:11:43;3.30;;;3.00;;
4391;SDS011;2210;51.938;8.488;2023-01-24T13:28:32;3.23;;;2.93;;
4391;SDS011;2210;51.938;8.488;2023-01-24T13:32:45;3.93;;;3.60;;
4391;SDS011;2210;51.938;8.488;2023-01-24T13:36:47;3.17;;;2.97;;
4391;SDS011;2210;51.938;8.488;2023-01-24T14:07:02;2.73;;;2.53;;
4391;SDS011;2210;51.938;8.488;2023-01-24T14:19:12;3.43;;;3.20;;
4391;SDS011;2210;51.938;8.488;2023-01-24T14:23:20;3.67;;;3.40;;
4391;SDS011;2210;51.938;8.488;2023-01-24T14:27:27;3.27;;;2.97;;
4391;SDS011;2210;51.938;8.488;2023-01-24T14:31:33;3.70;;;3.40;;
4391;SDS011;2210;51.938;8.488;2023-01-24T14:36:37;4.07;;;3.67;;
4391;SDS011;2210;51.938;8.488;2023-01-24T14:40:31;5.70;;;4.00;;
4391;SDS011;2210;51.938;8.488;2023-01-24T14:44:32;4.20;;;3.80;;
4391;SDS011;2210;51.938;8.488;2023-01-24T14:48:34;5.30;;;4.80;;
4391;SDS011;2210;51.938;8.488;2023-01-24T14:52:34;4.60;;;4.10;;
4391;SDS011;2210;51.938;8.488;2023-01-24T14:56:38;4.40;;;4.00;;
4391;SDS011;2210;51.938;8.488;2023-01-24T15:00:39;4.17;;;3.87;;
4391;SDS011;2210;51.938;8.488;2023-01-24T15:04:39;6.38;;;3.67;;
4391;SDS011;2210;51.938;8.488;2023-01-24T15:08:44;4.53;;;4.13;;
4391;SDS011;2210;51.938;8.488;2023-01-24T15:12:44;3.77;;;3.47;;
4391;SDS011;2210;51.938;8.488;2023-01-24T15:16:46;4.17;;;3.77;;
4391;SDS011;2210;51.938;8.488;2023-01-24T15:20:55;4.00;;;3.50;;
4391;SDS011;2210;51.938;8.488;2023-01-24T15:25:02;3.87;;;3.60;;
4391;SDS011;2210;51.938;8.488;2023-01-24T15:29:36;4.73;;;4.27;;
4391;SDS011;2210;51.938;8.488;2023-01-24T15:33:38;3.57;;;3.27;;
4391;SDS011;2210;51.938;8.488;2023-01-24T15:37:41;5.10;;;4.67;;
4391;SDS011;2210;51.938;8.488;2023-01-24T15:41:44;4.67;;;4.27;;
4391;SDS011;2210;51.938;8.488;2023-01-24T15:46:03;3.43;;;3.13;;
4391;SDS011;2210;51.938;8.488;2023-01-24T15:50:23;4.23;;;3.70;;
4391;SDS011;2210;51.938;8.488;2023-01-24T15:54:43;4.13;;;3.83;;
4391;SDS011;2210;51.938;8.488;2023-01-24T15:58:46;4.00;;;3.60;;
4391;SDS011;2210;51.938;8.488;2023-01-24T16:07:44;4.40;;;4.00;;
4391;SDS011;2210;51.938;8.488;2023-01-24T16:11:48;4.63;;;4.23;;
4391;SDS011;2210;51.938;8.488;2023-01-24T16:15:48;4.77;;;4.37;;
4391;SDS011;2210;51.938;8.488;2023-01-24T16:19:49;4.33;;;3.90;;
4391;SDS011;2210;51.938;8.488;2023-01-24T16:23:49;3.83;;;3.53;;
4391;SDS011;2210;51.938;8.488;2023-01-24T16:27:50;4.57;;;4.17;;
4391;SDS011;2210;51.938;8.488;2023-01-24T16:31:54;4.30;;;4.00;;
4391;SDS011;2210;51.938;8.488;2023-01-24T16:35:55;4.10;;;3.80;;
4391;SDS011;2210;51.938;8.488;2023-01-24T16:39:58;4.00;;;3.70;;
4391;SDS011;2210;51.938;8.488;2023-01-24T16:43:59;3.57;;;3.37;;
4391;SDS011;2210;51.938;8.488;2023-01-24T16:48:01;4.70;;;4.30;;
4391;SDS011;2210;51.938;8.488;2023-01-24T16:52:03;5.07;;;4.67;;
4391;SDS011;2210;51.938;8.488;2023-01-24T16:56:04;4.73;;;4.33;;
4391;SDS011;2210;51.938;8.488;2023-01-24T17:00:06;4.60;;;4.20;;
4391;SDS011;2210;51.938;8.488;2023-01-24T17:04:23;5.70;;;5.20;;
4391;SDS011;2210;51.938;8.488;2023-01-24T17:08:24;5.37;;;4.90;;
4391;SDS011;2210;51.938;8.488;2023-01-24T17:12:24;5.63;;;5.13;;
4391;SDS011;2210;51.938;8.488;2023-01-24T17:16:33;4.93;;;4.60;;
4391;SDS011;2210;51.938;8.488;2023-01-24T17:25:30;4.70;;;4.30;;
4391;SDS011;2210;51.938;8.488;2023-01-24T17:29:31;4.70;;;4.30;;
4391;SDS011;2210;51.938;8.488;2023-01-24T17:33:31;5.00;;;4.60;;
4391;SDS011;2210;51.938;8.488;2023-01-24T17:37:32;4.60;;;4.20;;
4391;SDS011;2210;51.938;8.488;2023-01-24T17:41:32;4.90;;;4.57;;
4391;SDS011;2210;51.938;8.488;2023-01-24T17:45:32;4.85;;;4.55;;
4391;SDS011;2210;51.938;8.488;2023-01-24T17:49:34;5.80;;;5.40;;
4391;SDS011;2210;51.938;8.488;2023-01-24T17:53:35;5.73;;;5.23;;
4391;SDS011;2210;51.938;8.488;2023-01-24T17:57:36;6.43;;;5.83;;
4391;SDS011;2210;51.938;8.488;2023-01-24T18:01:37;5.03;;;4.60;;
4391;SDS011;2210;51.938;8.488;2023-01-24T18:05:40;5.63;;;5.13;;
4391;SDS011;2210;51.938;8.488;2023-01-24T18:09:40;4.40;;;4.00;;
4391;SDS011;2210;51.938;8.488;2023-01-24T18:13:44;5.65;;;5.05;;
4391;SDS011;2210;51.938;8.488;2023-01-24T18:17:53;5.70;;;5.20;;
4391;SDS011;2210;51.938;8.488;2023-01-24T18:21:54;5.50;;;5.03;;
4391;SDS011;2210;51.938;8.488;2023-01-24T18:26:00;5.50;;;5.00;;
4391;SDS011;2210;51.938;8.488;2023-01-24T18:30:02;6.30;;;5.67;;
4391;SDS011;2210;51.938;8.488;2023-01-24T18:34:03;5.20;;;4.80;;
4391;SDS011;2210;51.938;8.488;2023-01-24T18:38:04;24.90;;;13.70;;
4391;SDS011;2210;51.938;8.488;2023-01-24T18:42:04;6.17;;;5.57;;
4391;SDS011;2210;51.938;8.488;2023-01-24T18:46:07;5.40;;;4.90;;
4391;SDS011;2210;51.938;8.488;2023-01-24T18:50:18;9.00;;;7.87;;
4391;SDS011;2210;51.938;8.488;2023-01-24T18:54:21;5.33;;;4.83;;
4391;SDS011;2210;51.938;8.488;2023-01-24T18:58:22;5.43;;;5.03;;
4391;SDS011;2210;51.938;8.488;2023-01-24T19:02:22;5.23;;;4.23;;
4391;SDS011;2210;51.938;8.488;2023-01-24T19:06:27;3.70;;;3.50;;
4391;SDS011;2210;51.938;8.488;2023-01-24T19:10:29;4.73;;;4.33;;
4391;SDS011;2210;51.938;8.488;2023-01-24T19:14:29;5.10;;;4.60;;
4391;SDS011;2210;51.938;8.488;2023-01-24T19:18:33;5.40;;;4.90;;
4391;SDS011;2210;51.938;8.488;2023-01-24T19:22:34;4.90;;;4.50;;
4391;SDS011;2210;51.938;8.488;2023-01-24T19:26:40;5.63;;;5.13;;
4391;SDS011;2210;51.938;8.488;2023-01-24T19:30:56;5.47;;;4.97;;
4391;SDS011;2210;51.938;8.488;2023-01-24T19:35:05;6.17;;;5.67;;
4391;SDS011;2210;51.938;8.488;2023-01-24T19:39:05;6.17;;;5.57;;
4391;SDS011;2210;51.938;8.488;2023-01-24T19:43:10;5.93;;;5.40;;
4391;SDS011;2210;51.938;8.488;2023-01-24T19:47:13;5.57;;;5.07;;
4391;SDS011;2210;51.938;8.488;2023-01-24T19:51:19;4.93;;;4.53;;
4391;SDS011;2210;51.938;8.488;2023-01-24T19:55:20;6.37;;;5.77;;
4391;SDS011;2210;51.938;8.488;2023-01-24T19:59:27;7.60;;;6.90;;
4391;SDS011;2210;51.938;8.488;2023-01-24T20:03:27;6.70;;;6.00;;
4391;SDS011;2210;51.938;8.488;2023-01-24T20:07:28;6.18;;;5.68;;
4391;SDS011;2210;51.938;8.488;2023-01-24T20:11:28;7.00;;;6.30;;
4391;SDS011;2210;51.938;8.488;2023-01-24T20:15:28;6.00;;;5.50;;
4391;SDS011;2210;51.938;8.488;2023-01-24T20:19:28;15.50;;;11.33;;
4391;SDS011;2210;51.938;8.488;2023-01-24T20:23:29;12.20;;;8.07;;
4391;SDS011;2210;51.938;8.488;2023-01-24T20:27:29;6.90;;;6.20;;
4391;SDS011;2210;51.938;8.488;2023-01-24T20:36:04;9.63;;;6.50;;
4391;SDS011;2210;51.938;8.488;2023-01-24T20:40:09;7.83;;;7.00;;
4391;SDS011;2210;51.938;8.488;2023-01-24T20:44:14;12.20;;;6.27;;
4391;SDS011;2210;51.938;8.488;2023-01-24T20:48:14;7.00;;;6.40;;
4391;SDS011;2210;51.938;8.488;2023-01-24T20:52:15;5.90;;;5.33;;
4391;SDS011;2210;51.938;8.488;2023-01-24T20:56:15;6.70;;;6.10;;
4391;SDS011;2210;51.938;8.488;2023-01-24T21:00:22;7.07;;;6.40;;
4391;SDS011;2210;51.938;8.488;2023-01-24T21:04:22;6.10;;;5.50;;
4391;SDS011;2210;51.938;8.488;2023-01-24T21:08:22;7.17;;;6.47;;
4391;SDS011;2210;51.938;8.488;2023-01-24T21:12:23;7.28;;;6.68;;
4391;SDS011;2210;51.938;8.488;2023-01-24T21:16:24;7.45;;;6.75;;
4391;SDS011;2210;51.938;8.488;2023-01-24T21:20:28;7.13;;;6.50;;
4391;SDS011;2210;51.938;8.488;2023-01-24T21:24:29;7.20;;;6.50;;
4391;SDS011;2210;51.938;8.488;2023-01-24T21:28:29;7.30;;;6.60;;
4391;SDS011;2210;51.938;8.488;2023-01-24T21:32:29;6.88;;;6.28;;
4391;SDS011;2210;51.938;8.488;2023-01-24T21:36:29;7.38;;;6.57;;
4391;SDS011;2210;51.938;8.488;2023-01-24T21:40:32;6.70;;;6.10;;
4391;SDS011;2210;51.938;8.488;2023-01-24T21:45:04;7.33;;;6.60;;
4391;SDS011;2210;51.938;8.488;2023-01-24T21:49:05;7.70;;;6.93;;
4391;SDS011;2210;51.938;8.488;2023-01-24T21:53:05;7.90;;;7.10;;
4391;SDS011;2210;51.938;8.488;2023-01-24T21:57:25;8.23;;;7.43;;
4391;SDS011;2210;51.938;8.488;2023-01-24T22:01:48;7.83;;;7.13;;
4391;SDS011;2210;51.938;8.488;2023-01-24T22:05:50;7.07;;;6.37;;
4391;SDS011;2210;51.938;8.488;2023-01-24T22:09:55;8.13;;;7.33;;
4391;SDS011;2210;51.938;8.488;2023-01-24T22:13:57;8.50;;;7.70;;
4391;SDS011;2210;51.938;8.488;2023-01-24T22:17:57;9.00;;;7.00;;
4391;SDS011;2210;51.938;8.488;2023-01-24T22:22:01;7.60;;;6.90;;
4391;SDS011;2210;51.938;8.488;2023-01-24T22:26:15;6.60;;;6.00;;
4391;SDS011;2210;51.938;8.488;2023-01-24T22:30:21;7.87;;;7.10;;
4391;SDS011;2210;51.938;8.488;2023-01-24T22:34:29;5.80;;;5.30;;
4391;SDS011;2210;51.938;8.488;2023-01-24T22:38:30;7.33;;;6.63;;
4391;SDS011;2210;51.938;8.488;2023-01-24T22:42:30;7.80;;;7.00;;
4391;SDS011;2210;51.938;8.488;2023-01-24T22:46:37;7.63;;;6.93;;
4391;SDS011;2210;51.938;8.488;2023-01-24T22:50:37;8.27;;;7.43;;
4391;SDS011;2210;51.938;8.488;2023-01-24T22:54:40;8.38;;;7.65;;
4391;SDS011;2210;51.938;8.488;2023-01-24T22:58:42;10.00;;;8.97;;
4391;SDS011;2210;51.938;8.488;2023-01-24T23:02:46;8.33;;;7.53;;
4391;SDS011;2210;51.938;8.488;2023-01-24T23:06:47;7.97;;;7.17;;
4391;SDS011;2210;51.938;8.488;2023-01-24T23:10:53;9.43;;;8.20;;
4391;SDS011;2210;51.938;8.488;2023-01-24T23:15:00;9.57;;;7.87;;
4391;SDS011;2210;51.938;8.488;2023-01-24T23:23:41;8.60;;;7.60;;
4391;SDS011;2210;51.938;8.488;2023-01-24T23:27:44;6.30;;;5.70;;
4391;SDS011;2210;51.938;8.488;2023-01-24T23:31:51;9.47;;;8.20;;
4391;SDS011;2210;51.938;8.488;2023-01-24T23:35:56;8.17;;;7.23;;
4391;SDS011;2210;51.938;8.488;2023-01-24T23:40:03;10.63;;;7.80;;
4391;SDS011;2210;51.938;8.488;2023-01-24T23:44:03;8.10;;;7.30;;
4391;SDS011;2210;51.938;8.488;2023-01-24T23:48:04;7.25;;;6.55;;
4391;SDS011;2210;51.938;8.488;2023-01-24T23:52:04;7.57;;;6.77;;
